Time;durP1;ratioP1;P1;durP2;ratioP2;P2;SDS_P1;SDS_P2;PMS_P1;PMS_P2;Temp;Humidity;BMP_temperature;BMP_pressure;BME280_temperature;BME280_humidity;BME280_pressure;Samples;Min_cycle;Max_cycle;Signal;HPM_P1;HPM_P2
2022/06/08 00:02:20;;;;;;;6.63;2.63;;;;;;;;;;5055333;28;20056;-64
2022/06/08 00:04:45;;;;;;;5.50;2.40;;;20.60;86.60;;;;;;5042798;28;20049;-65
2022/06/08 00:07:11;;;;;;;4.93;2.50;;;20.70;83.70;;;;;;5038809;28;20059;-66
2022/06/08 00:09:37;;;;;;;5.28;2.42;;;20.90;86.90;;;;;;5047048;28;20063;-64
2022/06/08 00:12:03;;;;;;;6.85;2.63;;;20.90;86.90;;;;;;5052626;28;20055;-64
2022/06/08 00:14:29;;;;;;;5.88;2.50;;;20.90;83.60;;;;;;5036101;28;20080;-65
2022/06/08 00:16:55;;;;;;;5.97;2.45;;;20.60;86.60;;;;;;5041741;28;20044;-65
2022/06/08 00:19:20;;;;;;;6.43;2.45;;;20.60;86.60;;;;;;5038020;28;20124;-63
2022/06/08 00:21:46;;;;;;;5.18;2.25;;;20.80;83.90;;;;;;5037907;28;20118;-63
2022/06/08 00:24:12;;;;;;;4.65;2.30;;;20.80;86.80;;;;;;5034840;28;20045;-65
2022/06/08 00:26:38;;;;;;;5.72;2.65;;;20.70;86.70;;;;;;5037241;28;20495;-62
2022/06/08 00:29:06;;;;;;;4.57;2.30;;;20.40;86.70;;;;;;5038937;28;20092;-64
2022/06/08 00:31:32;;;;;;;5.32;2.50;;;;;;;;;;5055916;28;20484;-64
2022/06/08 00:33:58;;;;;;;5.22;2.17;;;20.90;86.80;;;;;;5054447;28;20084;-63
2022/06/08 00:36:24;;;;;;;5.53;2.47;;;20.60;86.50;;;;;;5054985;28;20087;-63
2022/06/08 00:38:49;;;;;;;7.25;2.70;;;20.90;86.70;;;;;;5019585;28;20053;-63
2022/06/08 00:41:24;;;;;;;6.10;2.58;;;20.80;86.60;;;;;;5032423;28;20060;-65
2022/06/08 00:43:50;;;;;;;6.72;2.50;;;;;;;;;;5054572;28;20056;-66
2022/06/08 00:46:16;;;;;;;5.75;2.30;;;20.60;86.50;;;;;;5054536;28;20115;-63
2022/06/08 00:48:46;;;;;;;5.32;2.60;;;20.60;86.90;;;;;;5046177;28;20079;-63
2022/06/08 00:51:12;;;;;;;5.07;2.63;;;20.70;86.80;;;;;;5051650;28;20395;-63
2022/06/08 00:53:40;;;;;;;4.15;2.30;;;20.70;83.30;;;;;;5052874;28;20045;-66
2022/06/08 00:56:09;;;;;;;6.38;2.72;;;20.30;86.60;;;;;;5048758;28;20053;-62
2022/06/08 00:58:35;;;;;;;5.07;2.25;;;20.70;86.40;;;;;;5034882;28;20049;-63
2022/06/08 01:01:01;;;;;;;5.40;2.40;;;20.50;86.30;;;;;;5033382;28;20048;-63
2022/06/08 01:03:27;;;;;;;6.10;2.88;;;20.50;83.30;;;;;;5052727;28;20479;-62
2022/06/08 01:05:57;;;;;;;5.45;2.53;;;20.50;86.30;;;;;;5050922;28;20037;-63
2022/06/08 01:08:22;;;;;;;5.25;2.40;;;20.20;86.40;;;;;;5054152;28;20052;-62
2022/06/08 01:10:50;;;;;;;5.13;2.80;;;20.60;86.30;;;;;;5038326;28;20411;-63
2022/06/08 01:13:16;;;;;;;6.22;2.75;;;20.50;83.60;;;;;;5025850;28;20057;-62
2022/06/08 01:15:42;;;;;;;5.13;2.60;;;;;;;;;;5032603;28;20057;-64
2022/06/08 01:18:08;;;;;;;5.05;2.50;;;20.50;86.30;;;;;;5016106;28;20492;-62
2022/06/08 01:20:34;;;;;;;4.82;2.47;;;20.30;83.40;;;;;;5038724;28;20049;-62
2022/06/08 01:23:00;;;;;;;5.80;3.03;;;20.50;86.20;;;;;;5051649;28;20387;-63
2022/06/08 01:25:28;;;;;;;5.72;2.97;;;20.50;86.30;;;;;;5053554;28;20402;-62
2022/06/08 01:28:09;;;;;;;4.38;2.35;;;20.50;86.20;;;;;;5050778;28;20072;-63
2022/06/08 01:30:44;;;;;;;6.20;2.55;;;20.30;86.10;;;;;;5016001;28;20057;-62
2022/06/08 01:33:35;;;;;;;5.80;2.50;;;20.40;86.10;;;;;;5035187;28;20048;-63
2022/06/08 01:36:13;;;;;;;5.55;2.88;;;20.60;86.00;;;;;;5021132;28;20136;-63
2022/06/08 01:39:03;;;;;;;6.32;3.20;;;20.60;81.50;;;;;;5050029;28;20441;-62
2022/06/08 01:41:34;;;;;;;5.95;3.08;;;20.60;86.30;;;;;;5051863;28;20135;-62
2022/06/08 01:44:41;;;;;;;7.00;3.10;;;20.50;86.40;;;;;;5051744;28;20046;-62
2022/06/08 01:47:07;;;;;;;6.18;2.97;;;20.60;86.20;;;;;;5029740;28;20057;-63
2022/06/08 01:50:01;;;;;;;6.57;3.30;;;20.30;86.10;;;;;;5052490;28;20045;-62
2022/06/08 01:53:03;;;;;;;7.65;2.88;;;20.60;86.30;;;;;;5048344;28;20389;-62
2022/06/08 01:55:28;;;;;;;6.13;3.30;;;20.40;86.20;;;;;;4955324;28;20066;-63
2022/06/08 01:58:05;;;;;;;7.93;2.95;;;20.50;86.40;;;;;;4970812;28;20121;-62
2022/06/08 02:00:35;;;;;;;8.27;2.75;;;20.50;86.40;;;;;;4958914;28;20047;-62
2022/06/08 02:03:17;;;;;;;7.55;2.92;;;20.20;86.30;;;;;;4964306;28;20129;-62
2022/06/08 02:05:51;;;;;;;5.72;3.05;;;20.30;86.20;;;;;;4972201;28;20444;-62
2022/06/08 02:08:42;;;;;;;7.93;3.00;;;20.40;86.50;;;;;;4968208;28;20456;-62
2022/06/08 02:11:45;;;;;;;7.18;3.33;;;20.20;82.30;;;;;;4923525;29;20063;-62
2022/06/08 02:14:15;;;;;;;6.35;3.13;;;20.50;82.70;;;;;;4953041;29;20159;-62
2022/06/08 02:16:42;;;;;;;6.82;3.00;;;20.50;86.30;;;;;;4942727;28;20093;-63
2022/06/08 02:19:12;;;;;;;6.80;3.08;;;20.30;86.20;;;;;;4953855;28;20047;-63
2022/06/08 02:21:44;;;;;;;7.03;3.40;;;20.50;83.50;;;;;;4955134;28;20489;-62
2022/06/08 02:24:19;;;;;;;6.38;2.97;;;20.10;86.30;;;;;;4939288;28;20113;-62
2022/06/08 02:26:49;;;;;;;5.47;3.00;;;20.40;83.00;;;;;;4956011;28;20051;-64
2022/06/08 02:29:20;;;;;;;7.03;3.20;;;20.40;86.50;;;;;;4970835;28;20062;-62
2022/06/08 02:31:49;;;;;;;6.38;2.90;;;20.40;86.20;;;;;;4988716;28;20058;-62
2022/06/08 02:34:29;;;;;;;6.43;3.20;;;20.50;86.30;;;;;;4999536;28;20052;-63
2022/06/08 02:37:00;;;;;;;4.65;2.80;;;20.20;86.20;;;;;;5027974;28;20076;-62
2022/06/08 02:39:38;;;;;;;5.60;3.00;;;20.30;86.50;;;;;;5046377;28;20041;-63
2022/06/08 02:42:06;;;;;;;6.15;3.08;;;20.30;86.10;;;;;;5051915;28;20049;-63
2022/06/08 02:44:32;;;;;;;6.68;2.97;;;20.40;83.40;;;;;;5051933;28;20041;-62
2022/06/08 02:47:18;;;;;;;5.68;3.20;;;20.20;86.20;;;;;;5051470;28;20107;-63
2022/06/08 02:49:43;;;;;;;5.75;3.10;;;20.30;86.10;;;;;;5039188;28;20129;-63
2022/06/08 02:52:20;;;;;;;4.53;3.00;;;20.30;85.90;;;;;;5043439;28;20128;-62
2022/06/08 02:54:46;;;;;;;7.35;3.10;;;20.40;86.10;;;;;;5048481;28;20056;-62
2022/06/08 02:57:33;;;;;;;8.93;3.10;;;20.30;83.10;;;;;;5052944;28;20041;-62
2022/06/08 03:00:15;;;;;;;5.63;3.00;;;20.30;85.90;;;;;;5032369;28;20126;-63
2022/06/08 03:03:06;;;;;;;5.93;2.83;;;20.20;86.20;;;;;;5042232;28;20041;-62
2022/06/08 03:05:35;;;;;;;5.50;3.00;;;20.30;85.90;;;;;;5055195;28;20080;-63
2022/06/08 03:08:14;;;;;;;6.95;3.33;;;20.20;86.20;;;;;;5055308;28;20045;-63
2022/06/08 03:10:41;;;;;;;6.38;3.17;;;20.10;85.70;;;;;;5050348;28;20037;-63
2022/06/08 03:13:26;;;;;;;4.97;3.05;;;20.20;83.20;;;;;;5054922;28;20064;-62
2022/06/08 03:15:54;;;;;;;6.13;3.03;;;20.30;85.90;;;;;;5054670;28;20051;-62
2022/06/08 03:18:20;;;;;;;5.95;3.30;;;20.30;83.20;;;;;;5055136;28;20064;-62
2022/06/08 03:20:46;;;;;;;6.63;3.53;;;20.20;85.70;;;;;;5052840;28;20037;-63
2022/06/08 03:23:12;;;;;;;6.63;3.20;;;;;;;;;;5054769;28;20124;-63
2022/06/08 03:25:38;;;;;;;6.00;3.45;;;20.30;85.80;;;;;;5037766;28;20045;-62
2022/06/08 03:28:04;;;;;;;6.05;3.40;;;20.20;85.90;;;;;;5044276;28;20056;-62
2022/06/08 03:30:30;;;;;;;5.78;3.42;;;20.20;86.00;;;;;;5036140;28;20041;-62
2022/06/08 03:32:58;;;;;;;5.43;3.35;;;20.00;85.50;;;;;;5049397;28;20073;-63
2022/06/08 03:35:24;;;;;;;6.88;3.75;;;20.20;85.90;;;;;;5054485;28;20049;-63
2022/06/08 03:37:49;;;;;;;5.72;3.42;;;20.30;85.70;;;;;;5056196;28;20048;-62
2022/06/08 03:40:15;;;;;;;6.60;3.47;;;20.10;85.60;;;;;;5054128;28;20132;-62
2022/06/08 03:42:41;;;;;;;5.82;3.40;;;20.00;85.40;;;;;;5052480;28;20044;-63
2022/06/08 03:45:07;;;;;;;7.00;3.45;;;20.00;85.40;;;;;;5039883;28;20106;-62
2022/06/08 03:47:38;;;;;;;7.82;3.60;;;20.20;82.50;;;;;;5055738;28;20041;-62
2022/06/08 03:50:05;;;;;;;7.20;3.40;;;20.20;83.10;;;;;;5038169;28;20096;-62
2022/06/08 03:52:32;;;;;;;7.95;3.67;;;20.20;85.50;;;;;;5052370;28;20109;-62
2022/06/08 03:55:00;;;;;;;5.18;3.17;;;20.30;85.90;;;;;;5067084;28;20052;-63
2022/06/08 03:57:25;;;;;;;7.07;3.42;;;20.20;85.50;;;;;;5005498;28;20049;-63
2022/06/08 03:59:51;;;;;;;5.78;2.97;;;20.40;85.50;;;;;;5044628;28;20045;-63
2022/06/08 04:02:17;;;;;;;6.82;3.20;;;20.10;85.60;;;;;;5050343;28;20044;-62
2022/06/08 04:04:43;;;;;;;6.63;3.40;;;20.10;85.30;;;;;;5035707;28;20395;-63
2022/06/08 04:07:09;;;;;;;5.65;3.53;;;20.30;85.60;;;;;;5034146;28;20064;-62
2022/06/08 04:09:34;;;;;;;5.85;3.15;;;20.50;85.50;;;;;;5034967;28;20092;-63
2022/06/08 04:12:00;;;;;;;7.82;3.55;;;20.20;82.30;;;;;;5035054;28;20475;-63
2022/06/08 04:14:27;;;;;;;5.00;2.92;;;20.40;85.40;;;;;;5048527;28;20045;-62
2022/06/08 04:16:53;;;;;;;5.80;3.28;;;20.10;85.10;;;;;;5053204;28;20041;-62
2022/06/08 04:19:19;;;;;;;5.88;3.45;;;20.40;82.50;;;;;;5017676;28;20049;-62
2022/06/08 04:21:45;;;;;;;6.82;3.72;;;20.60;85.30;;;;;;5035018;28;20091;-63
2022/06/08 04:24:12;;;;;;;6.18;3.55;;;20.50;82.30;;;;;;5035266;28;20050;-63
2022/06/08 04:26:37;;;;;;;7.25;3.25;;;20.50;85.20;;;;;;5034667;28;20055;-63
2022/06/08 04:29:03;;;;;;;7.00;3.47;;;20.80;85.30;;;;;;5040894;28;20041;-63
2022/06/08 04:31:33;;;;;;;5.10;3.15;;;20.60;85.10;;;;;;5034971;28;20037;-62
2022/06/08 04:33:58;;;;;;;7.60;3.55;;;20.70;85.10;;;;;;5046154;28;20067;-63
2022/06/08 04:36:24;;;;;;;5.80;3.40;;;20.40;82.30;;;;;;5048531;28;20064;-62
2022/06/08 04:38:50;;;;;;;5.15;2.92;;;20.70;85.00;;;;;;5019945;28;20035;-62
2022/06/08 04:41:16;;;;;;;5.28;3.05;;;20.80;85.10;;;;;;5054181;28;20045;-62
2022/06/08 04:43:42;;;;;;;7.55;3.45;;;20.70;85.00;;;;;;5054649;28;20056;-62
2022/06/08 04:46:08;;;;;;;7.75;3.45;;;21.00;85.00;;;;;;5044633;28;20041;-63
2022/06/08 04:48:33;;;;;;;5.22;2.95;;;20.80;85.00;;;;;;5046487;28;20049;-62
2022/06/08 04:50:59;;;;;;;5.53;2.85;;;20.80;82.00;;;;;;5034275;28;20042;-63
2022/06/08 04:53:25;;;;;;;5.13;3.22;;;20.80;84.70;;;;;;5048218;28;20041;-62
2022/06/08 04:55:51;;;;;;;5.93;3.03;;;21.20;84.70;;;;;;5033967;28;20127;-63
2022/06/08 04:58:17;;;;;;;6.65;3.13;;;21.10;84.20;;;;;;5047717;28;20044;-62
2022/06/08 05:00:42;;;;;;;6.22;3.08;;;21.40;84.00;;;;;;5038332;28;20049;-63
2022/06/08 05:03:08;;;;;;;5.97;3.25;;;21.10;83.80;;;;;;5054185;28;20072;-63
2022/06/08 05:05:36;;;;;;;5.72;3.10;;;21.60;83.40;;;;;;5050796;28;20615;-63
2022/06/08 05:08:02;;;;;;;4.80;3.00;;;21.50;80.70;;;;;;5052504;28;20441;-63
2022/06/08 05:10:30;;;;;;;5.20;3.03;;;21.90;82.90;;;;;;5044879;28;20041;-63
2022/06/08 05:12:56;;;;;;;5.95;3.60;;;22.00;82.50;;;;;;5012843;28;20492;-62
2022/06/08 05:15:25;;;;;;;7.00;3.28;;;22.20;80.20;;;;;;5029642;28;20049;-63
2022/06/08 05:17:51;;;;;;;8.07;3.50;;;22.40;82.20;;;;;;5026626;28;20052;-62
2022/06/08 05:20:17;;;;;;;5.68;3.63;;;22.40;81.90;;;;;;5032304;28;20042;-62
2022/06/08 05:22:46;;;;;;;5.82;3.50;;;22.40;81.90;;;;;;5017425;28;20053;-63
2022/06/08 05:25:15;;;;;;;7.10;3.83;;;22.40;78.00;;;;;;5013902;28;20435;-63
2022/06/08 05:27:41;;;;;;;6.00;3.75;;;22.50;81.90;;;;;;5027754;28;20368;-63
2022/06/08 05:30:10;;;;;;;6.93;4.25;;;22.20;81.40;;;;;;5030428;28;20106;-63
2022/06/08 05:32:37;;;;;;;6.18;3.83;;;22.60;80.50;;;;;;5033217;28;20053;-64
2022/06/08 05:35:03;;;;;;;6.75;4.00;;;22.50;81.50;;;;;;5033422;28;20041;-63
2022/06/08 05:37:29;;;;;;;5.55;3.55;;;22.40;81.50;;;;;;5031402;28;20490;-63
2022/06/08 05:39:54;;;;;;;7.13;3.80;;;22.30;81.70;;;;;;5031575;28;20033;-63
2022/06/08 05:42:20;;;;;;;6.57;3.95;;;22.50;82.00;;;;;;5030489;28;20055;-63
2022/06/08 05:44:46;;;;;;;6.03;4.05;;;22.20;82.00;;;;;;5030890;28;20045;-62
2022/06/08 05:47:12;;;;;;;9.38;4.50;;;22.40;82.20;;;;;;5033683;28;20458;-63
2022/06/08 05:49:39;;;;;;;6.43;3.83;;;22.00;82.10;;;;;;5031318;28;20058;-63
2022/06/08 05:52:07;;;;;;;6.68;3.53;;;22.30;82.40;;;;;;5031661;28;20052;-63
2022/06/08 05:54:33;;;;;;;8.13;4.68;;;22.10;79.50;;;;;;5033870;28;20408;-63
2022/06/08 05:56:59;;;;;;;6.40;3.92;;;22.20;82.60;;;;;;5012639;28;20042;-63
2022/06/08 05:59:25;;;;;;;6.85;3.70;;;;;;;;;;5023833;28;20461;-62
2022/06/08 06:01:51;;;;;;;5.93;3.65;;;22.20;82.90;;;;;;5025446;28;20502;-61
2022/06/08 06:04:17;;;;;;;6.35;4.28;;;22.10;83.00;;;;;;5033533;28;20387;-63
2022/06/08 06:06:46;;;;;;;6.15;4.32;;;21.80;83.00;;;;;;5033506;28;20072;-62
2022/06/08 06:09:13;;;;;;;6.05;3.92;;;21.50;83.50;;;;;;5030409;28;20435;-63
2022/06/08 06:11:39;;;;;;;5.60;4.10;;;21.90;83.10;;;;;;5031949;28;20129;-62
2022/06/08 06:14:05;;;;;;;7.03;4.05;;;22.00;83.40;;;;;;5048219;28;20092;-63
2022/06/08 06:16:31;;;;;;;7.60;4.65;;;21.90;83.30;;;;;;5033745;28;20430;-62
2022/06/08 06:18:57;;;;;;;6.90;4.35;;;22.10;83.50;;;;;;5049868;28;20049;-62
2022/06/08 06:21:26;;;;;;;7.40;4.13;;;22.10;80.50;;;;;;5049509;28;20386;-62
2022/06/08 06:23:56;;;;;;;7.38;5.00;;;22.20;83.50;;;;;;5036112;28;20048;-62
2022/06/08 06:26:22;;;;;;;6.32;4.20;;;22.20;81.10;;;;;;5052735;28;20045;-62
2022/06/08 06:28:48;;;;;;;8.82;4.95;;;21.90;83.40;;;;;;5053168;28;20102;-65
2022/06/08 06:31:50;;;;;;;7.45;4.28;;;22.10;79.10;;;;;;5052969;28;20045;-65
2022/06/08 06:34:17;;;;;;;7.10;4.43;;;22.00;84.10;;;;;;5033166;28;20090;-65
2022/06/08 06:36:43;;;;;;;7.78;4.75;;;;;;;;;;5053139;28;20088;-64
2022/06/08 06:39:09;;;;;;;6.32;4.60;;;22.10;84.10;;;;;;5056878;28;20041;-63
2022/06/08 06:41:35;;;;;;;8.85;4.78;;;22.00;83.90;;;;;;5055525;28;20056;-62
2022/06/08 06:44:01;;;;;;;7.07;4.55;;;22.00;83.90;;;;;;5056595;28;20483;-62
2022/06/08 06:46:27;;;;;;;8.32;4.78;;;22.10;84.20;;;;;;5054934;28;20137;-62
2022/06/08 06:48:53;;;;;;;6.57;4.40;;;22.00;81.00;;;;;;5044731;28;20041;-62
2022/06/08 06:51:18;;;;;;;7.93;4.30;;;21.80;84.20;;;;;;5041333;28;20045;-62
2022/06/08 06:53:44;;;;;;;7.35;5.03;;;22.10;84.20;;;;;;5055373;28;20041;-62
2022/06/08 06:56:10;;;;;;;7.57;4.95;;;22.00;82.40;;;;;;5053965;28;20052;-63
2022/06/08 06:58:36;;;;;;;7.53;4.70;;;22.40;81.30;;;;;;5056685;28;20044;-61
2022/06/08 07:01:03;;;;;;;6.72;4.75;;;22.10;81.40;;;;;;5056309;28;20041;-63
2022/06/08 07:03:29;;;;;;;8.40;5.18;;;22.40;84.30;;;;;;5054965;28;20052;-62
2022/06/08 07:05:55;;;;;;;8.15;5.38;;;22.00;84.10;;;;;;5041366;28;20124;-62
2022/06/08 07:08:21;;;;;;;7.95;5.35;;;;;;;;;;5050733;28;20120;-63
2022/06/08 07:11:32;;;;;;;7.15;4.80;;;22.30;84.20;;;;;;5036485;28;20050;-62
2022/06/08 07:13:33;;;;;;;7.07;5.15;;;22.50;84.10;;;;;;5035971;28;20050;-63
2022/06/08 07:15:59;;;;;;;9.93;5.38;;;22.50;81.10;;;;;;5036417;28;20053;-62
2022/06/08 07:18:25;;;;;;;8.50;5.57;;;22.70;84.10;;;;;;5050183;28;20094;-62
2022/06/08 07:20:51;;;;;;;8.48;5.40;;;23.00;84.60;;;;;;5044485;28;20050;-62
2022/06/08 07:23:17;;;;;;;9.32;5.57;;;22.70;81.20;;;;;;5036187;28;20053;-62
2022/06/08 07:25:42;;;;;;;11.88;5.88;;;22.80;83.90;;;;;;5036457;28;20037;-62
2022/06/08 07:28:08;;;;;;;7.93;5.43;;;23.10;84.00;;;;;;5044000;28;20055;-62
2022/06/08 07:30:36;;;;;;;8.60;5.70;;;;;;;;;;5051855;28;20114;-64
2022/06/08 07:33:02;;;;;;;7.63;5.50;;;23.30;84.30;;;;;;5035748;28;20096;-62
2022/06/08 07:35:29;;;;;;;8.35;5.55;;;;;;;;;;5047480;28;20399;-66
2022/06/08 07:37:54;;;;;;;8.18;5.25;;;23.30;83.80;;;;;;5052157;28;20045;-63
2022/06/08 07:40:20;;;;;;;7.53;5.47;;;23.40;83.80;;;;;;5054378;28;20077;-65
2022/06/08 07:42:46;;;;;;;7.70;5.53;;;23.30;83.30;;;;;;5046913;28;20395;-63
2022/06/08 07:45:12;;;;;;;7.60;5.55;;;23.50;80.70;;;;;;5036763;28;20045;-67
2022/06/08 07:49:36;;;;;;;8.13;4.90;;;23.40;83.50;;;;;;5052825;28;20037;-64
2022/06/08 07:50:24;;;;;;;6.95;5.00;;;23.60;83.50;;;;;;5055623;28;20123;-63
2022/06/08 07:52:50;;;;;;;7.55;4.80;;;23.60;80.90;;;;;;5055676;28;20041;-63
2022/06/08 07:55:16;;;;;;;9.10;5.47;;;23.60;83.50;;;;;;5055381;28;20488;-63
2022/06/08 07:57:42;;;;;;;7.63;5.00;;;23.50;83.50;;;;;;5054456;28;20041;-63
2022/06/08 08:00:10;;;;;;;7.18;5.15;;;23.80;83.60;;;;;;5042142;28;20117;-61
2022/06/08 08:02:36;;;;;;;8.20;5.57;;;23.40;80.30;;;;;;5055698;28;20128;-61
2022/06/08 08:05:02;;;;;;;7.88;5.25;;;23.60;83.50;;;;;;5045554;28;20175;-61
2022/06/08 08:07:28;;;;;;;9.73;6.13;;;23.70;83.90;;;;;;5054743;28;20045;-61
2022/06/08 08:09:54;;;;;;;10.13;6.07;;;23.70;80.80;;;;;;5052975;28;20136;-64
2022/06/08 08:12:19;;;;;;;7.63;4.97;;;23.50;80.50;;;;;;5053824;28;20537;-64
2022/06/08 08:14:45;;;;;;;8.50;6.05;;;23.60;83.80;;;;;;5053272;28;20106;-72
2022/06/08 08:17:11;;;;;;;11.50;6.30;;;23.90;81.00;;;;;;5054048;28;20040;-66
2022/06/08 08:19:39;;;;;;;7.20;5.60;;;23.40;83.60;;;;;;5051679;28;20398;-69
2022/06/08 08:22:05;;;;;;;8.27;5.97;;;23.80;83.90;;;;;;5054206;28;20045;-62
2022/06/08 08:24:32;;;;;;;8.60;5.50;;;23.70;83.80;;;;;;5055053;28;20502;-63
2022/06/08 08:26:58;;;;;;;9.60;6.43;;;23.70;81.20;;;;;;5054286;28;20491;-61
2022/06/08 08:29:24;;;;;;;7.78;5.75;;;23.90;81.70;;;;;;5036921;28;20047;-61
2022/06/08 08:31:50;;;;;;;9.43;5.90;;;23.70;84.20;;;;;;5052508;28;20045;-61
2022/06/08 08:34:16;;;;;;;9.43;6.05;;;23.80;81.10;;;;;;5042002;28;20430;-61
2022/06/08 08:36:42;;;;;;;8.40;5.55;;;23.90;81.50;;;;;;5042069;28;20036;-62
2022/06/08 08:39:08;;;;;;;7.35;5.53;;;23.60;80.30;;;;;;5036351;28;20049;-64
2022/06/08 08:44:38;;;;;;;8.30;5.47;;;23.80;82.10;;;;;;5054664;28;20450;-62
2022/06/08 08:47:33;;;;;;;9.65;5.60;;;23.50;80.90;;;;;;5051405;28;20256;-61
2022/06/08 08:50:25;;;;;;;8.15;5.68;;;23.60;84.70;;;;;;5036738;28;20045;-61
2022/06/08 08:53:11;;;;;;;8.80;5.80;;;23.70;85.10;;;;;;5053919;28;20491;-61
2022/06/08 08:55:49;;;;;;;8.25;5.60;;;23.60;82.20;;;;;;5054493;28;20127;-61
2022/06/08 08:58:21;;;;;;;8.57;5.60;;;23.70;85.10;;;;;;5045972;28;20056;-61
2022/06/08 09:00:59;;;;;;;8.63;5.75;;;23.70;80.90;;;;;;5053373;28;20518;-60
2022/06/08 09:03:31;;;;;;;7.57;5.60;;;23.60;85.10;;;;;;5045004;28;20045;-61
2022/06/08 09:06:24;;;;;;;8.00;5.88;;;23.80;85.30;;;;;;5053588;28;20053;-62
2022/06/08 09:08:52;;;;;;;6.95;5.20;;;23.60;85.60;;;;;;4974350;28;20471;-62
2022/06/08 09:11:23;;;;;;;8.98;5.88;;;23.60;82.70;;;;;;4973049;28;20461;-63
2022/06/08 09:13:54;;;;;;;8.48;5.60;;;23.80;83.10;;;;;;4970885;28;20477;-60
2022/06/08 09:16:29;;;;;;;8.40;5.32;;;23.80;85.30;;;;;;4972652;28;20132;-61
2022/06/08 09:18:55;;;;;;;9.63;5.20;;;23.60;83.00;;;;;;4984076;28;20148;-61
2022/06/08 09:21:32;;;;;;;9.18;5.28;;;23.70;85.90;;;;;;4986321;28;20122;-61
2022/06/08 09:23:59;;;;;;;9.73;5.00;;;23.60;86.00;;;;;;4983061;28;20058;-61
2022/06/08 09:26:25;;;;;;;10.75;5.50;;;23.60;85.60;;;;;;4974256;28;20047;-61
2022/06/08 09:29:01;;;;;;;8.02;4.55;;;23.60;85.70;;;;;;4986330;28;20061;-61
2022/06/08 09:31:31;;;;;;;7.47;4.55;;;23.90;83.40;;;;;;4957567;28;20047;-61
2022/06/08 09:34:23;;;;;;;8.77;4.68;;;23.60;86.40;;;;;;4973026;28;20139;-61
2022/06/08 09:37:10;;;;;;;7.32;3.95;;;23.50;83.40;;;;;;4954795;28;20055;-61
2022/06/08 09:39:36;;;;;;;12.45;4.25;;;23.60;82.40;;;;;;4972680;28;20517;-61
2022/06/08 09:42:09;;;;;;;7.15;4.22;;;23.50;82.70;;;;;;4972455;28;20126;-62
2022/06/08 09:44:40;;;;;;;6.38;3.63;;;23.60;86.20;;;;;;4974220;28;20094;-62
2022/06/08 09:53:06;;;;;;;5.53;2.92;;;23.70;86.10;;;;;;5046323;28;20055;-61
2022/06/08 09:55:56;;;;;;;4.80;2.72;;;23.70;86.30;;;;;;5050132;28;20049;-61
2022/06/08 09:58:39;;;;;;;5.53;2.85;;;23.80;86.50;;;;;;5035931;28;20041;-62
2022/06/08 10:01:10;;;;;;;7.20;3.05;;;24.00;87.20;;;;;;5051934;28;20044;-61
2022/06/08 10:03:55;;;;;;;5.25;2.63;;;23.80;83.70;;;;;;5053036;28;20126;-61
2022/06/08 10:06:23;;;;;;;5.50;2.90;;;23.80;86.40;;;;;;5044822;28;20053;-61
2022/06/08 10:08:55;;;;;;;5.15;2.80;;;23.80;86.70;;;;;;5035120;28;20075;-61
2022/06/08 10:11:39;;;;;;;6.25;3.00;;;23.60;82.20;;;;;;5037857;28;20044;-61
2022/06/08 10:14:16;;;;;;;5.68;2.67;;;23.80;82.50;;;;;;5036156;28;20057;-61
2022/06/08 10:16:58;;;;;;;5.50;2.58;;;23.50;86.70;;;;;;5002876;28;20060;-61
2022/06/08 10:19:31;;;;;;;6.55;2.70;;;23.70;82.30;;;;;;5017692;28;20046;-61
2022/06/08 10:21:58;;;;;;;5.88;2.80;;;24.00;82.30;;;;;;5027368;28;20042;-61
2022/06/08 10:24:26;;;;;;;8.10;2.78;;;23.60;86.20;;;;;;5037384;28;20052;-61
2022/06/08 10:26:57;;;;;;;5.03;2.70;;;23.60;86.30;;;;;;5019330;28;20049;-61
2022/06/08 10:29:35;;;;;;;7.32;2.70;;;23.80;82.40;;;;;;5036938;28;20103;-61
2022/06/08 10:32:25;;;;;;;8.13;2.72;;;23.80;87.30;;;;;;5032341;28;20183;-61
2022/06/08 10:34:56;;;;;;;5.93;2.40;;;23.40;83.10;;;;;;5050780;28;20037;-61
2022/06/08 10:37:22;;;;;;;6.95;3.28;;;;;;;;;;5034039;28;20045;-62
2022/06/08 10:39:48;;;;;;;21.25;3.45;;;23.70;87.40;;;;;;5037069;28;20056;-61
2022/06/08 10:45:23;;;;;;;4.57;2.30;;;23.70;83.60;;;;;;5029901;28;20056;-63
2022/06/08 10:48:22;;;;;;;6.20;2.97;;;23.70;85.10;;;;;;5035479;28;21889;-62
2022/06/08 10:51:03;;;;;;;6.50;2.88;;;24.00;87.30;;;;;;5038374;28;20038;-62
2022/06/08 10:56:27;;;;;;;5.10;2.60;;;24.00;87.70;;;;;;5035845;28;20045;-63
2022/06/08 10:58:57;;;;;;;5.43;2.75;;;24.20;84.20;;;;;;5036456;28;20045;-63
2022/06/08 11:01:49;;;;;;;5.15;3.05;;;23.90;87.50;;;;;;5035917;28;20063;-75
2022/06/08 11:04:31;;;;;;;7.28;2.78;;;24.10;87.10;;;;;;5032485;28;20127;-65
2022/06/08 11:07:12;;;;;;;6.45;2.90;;;24.20;83.60;;;;;;5025085;28;20052;-61
2022/06/08 11:09:42;;;;;;;5.05;2.80;;;24.30;86.80;;;;;;5015538;28;20045;-64
2022/06/08 11:12:11;;;;;;;6.18;2.90;;;24.20;87.20;;;;;;5036505;28;20065;-61
2022/06/08 11:14:43;;;;;;;5.85;2.67;;;24.30;87.00;;;;;;5046502;28;20403;-62
2022/06/08 11:17:35;;;;;;;5.50;2.92;;;24.20;83.70;;;;;;5056120;28;20052;-61
2022/06/08 11:20:16;;;;;;;6.88;3.03;;;24.20;86.90;;;;;;4978888;28;20185;-64
2022/06/08 11:22:54;;;;;;;8.52;3.10;;;24.10;82.90;;;;;;4993208;28;20086;-64
2022/06/08 11:25:26;;;;;;;5.32;2.80;;;24.40;87.00;;;;;;4958060;28;20054;-61
2022/06/08 11:28:26;;;;;;;5.57;2.70;;;24.20;84.20;;;;;;4978718;28;20437;-61
2022/06/08 11:30:52;;;;;;;5.80;2.63;;;24.40;83.30;;;;;;4955817;29;20059;-62
2022/06/08 11:33:18;;;;;;;5.90;2.83;;;24.50;87.40;;;;;;4939700;29;20051;-63
2022/06/08 11:35:53;;;;;;;6.28;3.17;;;24.40;84.00;;;;;;4924112;28;20410;-63
2022/06/08 11:38:41;;;;;;;6.65;2.85;;;24.30;87.00;;;;;;4977675;28;20073;-62
2022/06/08 11:41:35;;;;;;;6.68;3.03;;;24.30;86.90;;;;;;4942672;28;20153;-62
2022/06/08 11:44:05;;;;;;;7.85;3.15;;;24.20;83.20;;;;;;4984543;28;20066;-62
2022/06/08 11:46:34;;;;;;;6.20;2.50;;;23.90;86.80;;;;;;4967907;28;20047;-63
2022/06/08 11:49:01;;;;;;;5.68;2.95;;;;;;;;;;4955574;28;20093;-67
2022/06/08 11:51:38;;;;;;;5.53;2.58;;;24.30;82.40;;;;;;4962968;28;20055;-64
2022/06/08 11:54:27;;;;;;;15.45;3.33;;;24.20;83.00;;;;;;4966510;28;20106;-65
2022/06/08 11:56:59;;;;;;;7.75;2.88;;;24.10;87.00;;;;;;4982726;28;20100;-65
2022/06/08 11:59:25;;;;;;;5.78;2.50;;;24.20;84.50;;;;;;5014524;28;20050;-62
2022/06/08 12:02:00;;;;;;;7.07;2.90;;;24.20;83.90;;;;;;5016355;28;20387;-62
2022/06/08 12:04:29;;;;;;;7.45;2.67;;;24.00;84.70;;;;;;5064888;28;20043;-61
2022/06/08 12:06:56;;;;;;;5.93;2.42;;;24.10;84.00;;;;;;5038051;28;20056;-62
2022/06/08 12:09:26;;;;;;;4.57;2.25;;;24.00;86.80;;;;;;5054049;28;20088;-64
2022/06/08 12:11:58;;;;;;;9.13;2.55;;;23.90;83.90;;;;;;5041355;28;20041;-63
2022/06/08 12:14:28;;;;;;;;;;;24.20;84.00;;;;;;5029709;28;20135;-61
2022/06/08 12:16:58;;;;;;;5.07;2.20;;;24.00;82.80;;;;;;5025514;28;19931;-62
2022/06/08 12:19:25;;;;;;;4.28;2.30;;;24.00;84.00;;;;;;5018320;28;20076;-62
2022/06/08 12:22:29;;;;;;;5.50;2.40;;;24.10;86.90;;;;;;5034703;28;20033;-65
2022/06/08 12:25:13;;;;;;;4.70;2.30;;;24.20;82.60;;;;;;5026220;28;20077;-64
2022/06/08 12:27:41;;;;;;;4.43;2.42;;;24.00;86.50;;;;;;4996890;28;20505;-62
2022/06/08 12:30:24;;;;;;;6.47;2.92;;;24.20;83.80;;;;;;5029609;28;20116;-62
2022/06/08 12:33:12;;;;;;;5.15;2.38;;;24.30;82.70;;;;;;5012270;28;20050;-62
2022/06/08 12:35:39;;;;;;;5.53;2.40;;;;;;;;;;4995093;28;20089;-62
2022/06/08 12:38:16;;;;;;;4.68;2.50;;;24.20;86.10;;;;;;4994379;28;20060;-64
2022/06/08 12:40:42;;;;;;;5.30;2.80;;;24.10;82.10;;;;;;4994588;28;20088;-63
2022/06/08 12:43:09;;;;;;;5.53;2.58;;;24.10;86.40;;;;;;5011191;28;20049;-63
2022/06/08 12:45:58;;;;;;;6.78;2.95;;;24.20;83.60;;;;;;5012009;28;20511;-63
2022/06/08 12:48:32;;;;;;;7.03;2.97;;;24.10;84.50;;;;;;5012274;28;20050;-63
2022/06/08 12:50:58;;;;;;;8.40;2.65;;;24.20;82.30;;;;;;5012679;28;20511;-62
2022/06/08 12:53:24;;;;;;;7.32;2.97;;;24.00;86.20;;;;;;5028313;28;20089;-62
2022/06/08 12:55:52;;;;;;;4.20;2.65;;;24.10;86.20;;;;;;5028432;28;20423;-63
2022/06/08 12:58:18;;;;;;;6.47;2.92;;;24.00;83.60;;;;;;4992241;28;20093;-62
2022/06/08 13:00:50;;;;;;;4.90;2.60;;;24.30;83.60;;;;;;4993555;28;20121;-62
2022/06/08 13:03:26;;;;;;;5.00;2.38;;;24.10;83.00;;;;;;5027885;28;20403;-63
2022/06/08 13:05:53;;;;;;;9.07;3.15;;;23.80;83.60;;;;;;5034098;28;20069;-63
2022/06/08 13:08:21;;;;;;;5.57;2.63;;;24.20;86.80;;;;;;5041677;28;20049;-63
2022/06/08 13:10:48;;;;;;;16.67;2.80;;;24.10;83.60;;;;;;5033928;28;20045;-62
2022/06/08 13:13:20;;;;;;;6.32;2.25;;;24.00;83.60;;;;;;5029062;28;20558;-62
2022/06/08 13:15:47;;;;;;;6.82;2.17;;;24.10;83.80;;;;;;5016921;28;20132;-63
2022/06/08 13:18:19;;;;;;;5.63;2.53;;;24.10;83.40;;;;;;5032466;28;20086;-62
2022/06/08 13:20:45;;;;;;;6.10;2.37;;;24.10;84.00;;;;;;5016380;28;20054;-63
2022/06/08 13:23:10;;;;;;;8.27;2.20;;;24.00;83.30;;;;;;5014670;28;20395;-63
2022/06/08 13:25:36;;;;;;;4.22;1.98;;;23.90;83.50;;;;;;5031915;28;20049;-63